Fort Morgan, Colorado
Current Conditions -  °F | °C
As of 7:35 AM on Tuesday 27 Jan 2015 (Local Time) from KFMM Reporting Station
Clear Clear  
Wind Chill: 23°   Ceiling: Unl
Heat Index: 30°   Visibility: 10mi
Dew Point: 26°   Wind: 7mph
Humidity: 84%   Direction: 280°W
Pressure: 30.13"   Gusts: NA
Location:  40.25°N, 103.8°W
Report Text: KFMM 271435Z AUTO 28006KT 10SM CLR M01/M03 A3013 RMK AO2 T10111035
Loading
Personal Weather Stations






























Interactive Weather Map New forecast layout! Learn more

10-Day Weather Forecast

Advertisements
Track Severe Weather on mobile